createdAt,value
2022-07-31T00:00:24.035Z,21.33
2022-07-31T00:02:52.235Z,21.26
2022-07-31T00:05:19.848Z,21.21
2022-07-31T00:07:47.406Z,21.21
2022-07-31T00:10:15.167Z,21.23
2022-07-31T00:12:44.095Z,21.25
2022-07-31T00:15:12.703Z,21.30
2022-07-31T00:17:41.338Z,21.28
2022-07-31T00:20:13.252Z,21.29
2022-07-31T00:22:40.904Z,21.30
2022-07-31T00:25:09.887Z,21.32
2022-07-31T00:27:37.487Z,21.31
2022-07-31T00:30:08.082Z,21.30
2022-07-31T00:32:35.683Z,21.30
2022-07-31T00:35:03.280Z,21.34
2022-07-31T00:37:30.857Z,21.32
2022-07-31T00:39:58.470Z,21.31
2022-07-31T00:42:27.482Z,21.27
2022-07-31T00:44:55.141Z,21.25
2022-07-31T00:47:25.569Z,21.24
2022-07-31T00:49:54.184Z,21.02
2022-07-31T00:52:21.896Z,20.89
2022-07-31T00:54:49.604Z,20.84
2022-07-31T00:57:17.224Z,20.85
2022-07-31T00:59:44.844Z,20.84
2022-07-31T05:02:15.097Z,19.93
2022-07-31T05:04:42.776Z,19.94
2022-07-31T05:07:10.454Z,19.97
2022-07-31T05:09:38.048Z,20.01
2022-07-31T05:12:06.733Z,20.01
2022-07-31T05:14:34.621Z,19.98
2022-07-31T05:17:02.262Z,19.98
2022-07-31T05:19:31.189Z,20.00
2022-07-31T05:22:02.325Z,20.00
2022-07-31T05:24:33.425Z,20.01
2022-07-31T05:27:02.467Z,19.93
2022-07-31T05:29:30.255Z,19.90
2022-07-31T05:32:00.079Z,19.91
2022-07-31T05:34:30.629Z,19.95
2022-07-31T05:37:01.385Z,19.95
2022-07-31T05:39:29.556Z,19.94
2022-07-31T05:41:57.213Z,19.94
2022-07-31T05:44:24.973Z,19.93
2022-07-31T05:49:19.837Z,20.05
2022-07-31T05:51:47.621Z,20.11
2022-07-31T05:54:17.508Z,20.08
2022-07-31T05:56:45.116Z,20.04
2022-07-31T05:59:12.715Z,20.07
2022-07-31T06:01:40.437Z,20.06
2022-07-31T06:04:08.124Z,20.00
2022-07-31T06:06:35.808Z,19.98
2022-07-31T06:09:04.950Z,20.04
2022-07-31T06:11:34.169Z,20.08
2022-07-31T06:14:02.459Z,20.12
2022-07-31T06:16:30.439Z,20.17
2022-07-31T06:18:58.315Z,20.22
2022-07-31T06:21:30.430Z,20.27
2022-07-31T06:23:58.500Z,20.33
2022-07-31T06:26:26.797Z,20.33
2022-07-31T06:28:56.866Z,20.31
2022-07-31T06:31:24.614Z,20.31
2022-07-31T06:33:52.640Z,20.39
2022-07-31T06:36:20.753Z,20.39
2022-07-31T06:38:48.446Z,20.46
2022-07-31T06:41:36.482Z,20.51
2022-07-31T06:44:05.691Z,20.59
2022-07-31T06:46:33.576Z,20.67
2022-07-31T06:49:03.545Z,20.72
2022-07-31T06:51:36.110Z,20.75
2022-07-31T06:54:07.238Z,20.76
2022-07-31T06:56:39.037Z,20.80
2022-07-31T06:59:08.308Z,20.86
2022-07-31T07:01:36.387Z,20.93
2022-07-31T07:04:04.336Z,20.95
2022-07-31T07:06:33.067Z,20.94
2022-07-31T07:09:00.886Z,20.98
2022-07-31T07:11:28.650Z,20.97
2022-07-31T07:13:56.281Z,21.04
2022-07-31T07:16:25.221Z,21.19
2022-07-31T07:18:53.088Z,21.31
2022-07-31T07:21:23.680Z,21.41
2022-07-31T07:23:51.438Z,21.34
2022-07-31T07:26:19.823Z,21.40
2022-07-31T07:28:47.401Z,21.63
2022-07-31T07:31:15.258Z,21.67
2022-07-31T07:33:45.738Z,21.60
2022-07-31T07:36:24.003Z,21.44
2022-07-31T07:38:56.055Z,21.43
2022-07-31T07:41:24.896Z,21.41
2022-07-31T07:43:53.603Z,21.53
2022-07-31T07:46:22.397Z,21.51
2022-07-31T07:48:51.977Z,21.50
2022-07-31T07:51:21.147Z,21.52
2022-07-31T07:53:49.321Z,21.60
2022-07-31T07:56:17.454Z,21.51
2022-07-31T07:58:45.095Z,21.61
2022-07-31T08:01:13.086Z,21.67
2022-07-31T08:03:48.168Z,21.74
2022-07-31T08:06:20.068Z,21.81
2022-07-31T08:08:47.735Z,21.82
2022-07-31T08:11:17.145Z,21.74
2022-07-31T08:13:50.250Z,21.81
2022-07-31T08:16:19.398Z,21.93
2022-07-31T08:18:47.099Z,22.04
2022-07-31T08:21:15.096Z,22.09
2022-07-31T08:23:44.177Z,22.06
2022-07-31T08:26:13.803Z,22.10
2022-07-31T08:28:50.295Z,22.13
2022-07-31T08:31:19.437Z,22.16
2022-07-31T08:33:47.393Z,22.23
2022-07-31T08:36:15.030Z,22.08
2022-07-31T08:38:44.123Z,22.13
2022-07-31T08:41:13.721Z,22.24
2022-07-31T08:44:00.066Z,22.24
2022-07-31T08:46:29.939Z,22.31
2022-07-31T08:48:58.162Z,22.37
2022-07-31T08:51:26.566Z,22.33
2022-07-31T08:53:56.162Z,22.17
2022-07-31T08:56:25.644Z,22.17
2022-07-31T08:58:53.392Z,22.17
2022-07-31T09:01:21.131Z,22.21
2022-07-31T09:03:48.822Z,22.34
2022-07-31T09:06:16.460Z,22.36
2022-07-31T09:08:44.033Z,22.37
2022-07-31T09:11:14.523Z,22.46
2022-07-31T09:14:01.473Z,22.58
2022-07-31T09:16:31.782Z,22.56
2022-07-31T09:19:00.622Z,22.55
2022-07-31T09:21:38.940Z,22.62
2022-07-31T09:24:10.097Z,22.71
2022-07-31T09:26:40.827Z,22.75
2022-07-31T09:29:11.750Z,22.73
2022-07-31T09:31:39.731Z,22.79
2022-07-31T09:34:07.424Z,22.84
2022-07-31T09:36:35.066Z,22.83
2022-07-31T09:39:05.385Z,22.88
2022-07-31T09:42:00.232Z,22.87
2022-07-31T09:44:25.371Z,22.87
2022-07-31T09:46:53.959Z,22.92
2022-07-31T09:49:31.541Z,23.03
2022-07-31T09:51:59.361Z,23.08
2022-07-31T09:54:29.675Z,23.18
2022-07-31T09:56:58.190Z,23.23
2022-07-31T09:59:27.117Z,23.25
2022-07-31T10:01:56.164Z,23.26
2022-07-31T10:04:24.237Z,23.33
2022-07-31T10:06:52.955Z,23.36
2022-07-31T10:09:22.222Z,23.39
2022-07-31T10:11:52.252Z,23.58
2022-07-31T10:14:23.502Z,23.66
2022-07-31T10:16:57.346Z,23.70
2022-07-31T10:19:32.494Z,23.69
2022-07-31T10:22:04.493Z,23.73
2022-07-31T10:24:33.977Z,23.78
2022-07-31T10:27:08.061Z,23.84
2022-07-31T10:29:39.064Z,23.88
2022-07-31T10:32:09.022Z,23.94
2022-07-31T10:34:37.001Z,24.00
2022-07-31T10:37:11.158Z,24.01
2022-07-31T10:39:48.141Z,24.01
2022-07-31T10:42:27.867Z,24.02
2022-07-31T10:45:04.862Z,24.05
2022-07-31T10:47:33.843Z,24.05
2022-07-31T10:50:01.485Z,24.11
2022-07-31T10:52:30.482Z,24.10
2022-07-31T10:55:00.968Z,24.10
2022-07-31T10:57:30.204Z,24.13
2022-07-31T11:00:08.776Z,24.11
2022-07-31T11:02:38.134Z,24.14
2022-07-31T11:05:10.501Z,24.18
2022-07-31T11:07:38.077Z,24.23
2022-07-31T11:10:17.376Z,24.26
2022-07-31T11:12:45.463Z,24.29
2022-07-31T11:15:24.382Z,24.34
2022-07-31T11:18:22.528Z,24.36
2022-07-31T11:20:46.536Z,24.39
2022-07-31T11:23:16.603Z,24.44
2022-07-31T11:25:45.937Z,24.48
2022-07-31T11:28:15.995Z,24.53
2022-07-31T11:30:52.150Z,24.54
2022-07-31T11:33:41.960Z,24.61
2022-07-31T11:36:12.490Z,24.70
2022-07-31T11:38:42.234Z,24.78
2022-07-31T11:41:12.084Z,24.88
2022-07-31T11:43:45.345Z,24.92
2022-07-31T11:46:13.462Z,24.91
2022-07-31T11:48:45.412Z,24.95
2022-07-31T11:51:19.389Z,24.96
2022-07-31T11:53:56.546Z,24.97
2022-07-31T11:56:27.889Z,24.94
2022-07-31T11:58:57.145Z,24.89
2022-07-31T12:01:29.245Z,24.93
2022-07-31T12:04:07.657Z,25.06
2022-07-31T12:06:37.034Z,25.18
2022-07-31T12:09:05.449Z,25.26
2022-07-31T12:11:33.137Z,25.39
2022-07-31T12:14:00.951Z,25.40
2022-07-31T12:16:28.532Z,25.36
2022-07-31T12:18:59.702Z,25.40
2022-07-31T12:21:31.657Z,25.46
2022-07-31T12:23:59.327Z,25.57
2022-07-31T12:26:28.443Z,25.64
2022-07-31T12:29:00.389Z,25.64
2022-07-31T12:31:29.203Z,25.65
2022-07-31T12:33:58.190Z,25.63
2022-07-31T12:36:25.809Z,25.67
2022-07-31T12:39:00.219Z,25.65
2022-07-31T12:41:28.264Z,25.56
2022-07-31T12:43:55.876Z,25.55
2022-07-31T12:46:35.509Z,25.52
2022-07-31T12:49:04.720Z,25.54
2022-07-31T12:51:46.313Z,25.59
2022-07-31T12:54:15.649Z,25.65
2022-07-31T12:56:43.728Z,25.75
2022-07-31T12:59:11.560Z,25.78
2022-07-31T13:01:39.998Z,25.84
2022-07-31T13:04:18.192Z,25.82
2022-07-31T13:06:50.999Z,25.77
2022-07-31T13:09:18.940Z,25.78
2022-07-31T13:11:48.471Z,25.75
2022-07-31T13:14:16.760Z,25.72
2022-07-31T13:16:44.421Z,25.73
2022-07-31T13:19:13.897Z,25.77
2022-07-31T13:21:49.421Z,25.80
2022-07-31T13:24:19.010Z,25.80
2022-07-31T13:26:47.102Z,25.83
2022-07-31T13:29:16.116Z,25.86
2022-07-31T13:31:44.282Z,25.84
2022-07-31T13:34:13.757Z,25.84
2022-07-31T13:36:41.361Z,25.78
2022-07-31T13:39:09.039Z,25.74
2022-07-31T13:41:39.051Z,25.72
2022-07-31T13:44:07.256Z,25.69
2022-07-31T13:46:35.391Z,25.66
2022-07-31T13:49:07.965Z,25.66
2022-07-31T13:51:37.683Z,25.71
2022-07-31T13:54:05.569Z,25.73
2022-07-31T13:56:34.120Z,25.79
2022-07-31T13:59:07.113Z,25.80
2022-07-31T14:02:04.280Z,25.86
2022-07-31T14:04:23.465Z,25.82
2022-07-31T14:06:52.858Z,25.87
2022-07-31T14:09:20.489Z,25.88
2022-07-31T14:11:48.269Z,25.83
2022-07-31T14:14:22.326Z,25.84
2022-07-31T14:16:51.338Z,25.84
2022-07-31T14:19:18.928Z,25.83
2022-07-31T14:21:56.214Z,25.82
2022-07-31T14:24:26.687Z,25.81
2022-07-31T14:26:54.368Z,25.80
2022-07-31T14:29:21.956Z,25.85
2022-07-31T14:31:49.727Z,25.81
2022-07-31T14:34:17.277Z,25.84
2022-07-31T14:36:44.833Z,25.76
2022-07-31T14:39:12.442Z,25.75
2022-07-31T14:41:41.443Z,25.75
2022-07-31T14:44:09.136Z,25.74
2022-07-31T14:46:36.668Z,25.70
2022-07-31T14:49:04.559Z,25.64
2022-07-31T14:51:32.241Z,25.66
2022-07-31T14:54:00.472Z,25.68
2022-07-31T14:56:58.454Z,25.67
2022-07-31T14:59:17.289Z,25.70
2022-07-31T15:01:44.914Z,25.65
2022-07-31T15:04:12.547Z,25.67
2022-07-31T15:06:56.109Z,25.65
2022-07-31T15:09:27.780Z,25.66
2022-07-31T15:11:59.708Z,25.71
2022-07-31T15:14:30.330Z,25.70
2022-07-31T15:16:58.096Z,25.68
2022-07-31T15:19:25.727Z,25.66
2022-07-31T15:22:16.357Z,25.69
2022-07-31T15:24:48.216Z,25.56
2022-07-31T15:27:17.763Z,25.53
2022-07-31T15:30:05.083Z,25.45
2022-07-31T15:32:34.811Z,25.44
2022-07-31T15:35:02.652Z,25.36
2022-07-31T15:37:30.429Z,25.25
2022-07-31T15:40:02.313Z,25.20
2022-07-31T15:42:31.658Z,25.22
2022-07-31T15:45:00.901Z,25.26
2022-07-31T15:47:28.476Z,25.19
2022-07-31T15:49:56.151Z,25.16
2022-07-31T15:52:23.718Z,25.11
2022-07-31T15:54:52.552Z,25.05
2022-07-31T15:57:20.600Z,25.02
2022-07-31T15:59:48.298Z,24.95
2022-07-31T16:02:17.825Z,24.90
2022-07-31T16:04:53.393Z,24.82
2022-07-31T16:08:31.809Z,24.44
2022-07-31T16:10:16.785Z,24.00
2022-07-31T16:12:45.981Z,23.74
2022-07-31T16:15:13.888Z,23.53
2022-07-31T16:17:43.074Z,23.48
2022-07-31T16:20:12.956Z,23.56
2022-07-31T16:22:52.553Z,23.50
2022-07-31T16:25:22.692Z,23.43
2022-07-31T16:27:50.469Z,23.26
2022-07-31T16:30:18.378Z,23.02
2022-07-31T16:32:47.389Z,22.86
2022-07-31T16:35:15.381Z,22.45
2022-07-31T16:37:51.039Z,22.51
2022-07-31T16:40:29.808Z,22.47
2022-07-31T16:43:00.589Z,22.39
2022-07-31T16:45:28.690Z,22.52
2022-07-31T16:47:57.663Z,22.61
2022-07-31T16:50:25.432Z,22.68
2022-07-31T16:52:55.091Z,22.51
2022-07-31T16:56:00.003Z,22.55
2022-07-31T16:58:11.809Z,22.56
2022-07-31T17:00:40.554Z,22.63
2022-07-31T17:03:58.643Z,22.69
2022-07-31T17:05:57.747Z,22.67
2022-07-31T17:08:25.480Z,22.65
2022-07-31T17:10:54.739Z,22.78
2022-07-31T17:13:23.405Z,22.85
2022-07-31T17:15:51.140Z,22.88
2022-07-31T17:18:24.835Z,22.76
2022-07-31T17:20:53.019Z,22.75
2022-07-31T17:23:42.998Z,22.76
2022-07-31T17:26:21.156Z,22.77
2022-07-31T17:28:50.760Z,22.88
2022-07-31T17:31:18.774Z,22.93
2022-07-31T17:33:58.566Z,22.96
2022-07-31T17:36:29.274Z,22.91
2022-07-31T17:38:57.129Z,22.78
2022-07-31T17:41:26.102Z,22.71
2022-07-31T17:43:54.506Z,22.73
2022-07-31T17:46:29.930Z,22.68
2022-07-31T17:49:04.616Z,22.73
2022-07-31T17:51:32.323Z,22.76
2022-07-31T17:54:00.008Z,22.74
2022-07-31T17:56:28.348Z,22.63
2022-07-31T17:59:03.611Z,22.57
2022-07-31T18:01:31.379Z,22.44
2022-07-31T18:03:58.998Z,22.46
2022-07-31T18:06:28.087Z,22.37
2022-07-31T18:08:55.738Z,22.42
2022-07-31T18:11:23.449Z,22.44
2022-07-31T18:13:55.308Z,22.46
2022-07-31T18:16:25.300Z,22.40
2022-07-31T18:18:54.625Z,22.44
2022-07-31T18:21:22.612Z,22.38
2022-07-31T18:23:51.528Z,22.31
2022-07-31T18:26:19.106Z,22.26
2022-07-31T18:28:46.679Z,22.16
2022-07-31T18:31:33.918Z,22.13
2022-07-31T18:34:02.756Z,22.19
2022-07-31T18:36:30.340Z,22.21
2022-07-31T18:38:59.273Z,22.16
2022-07-31T18:41:30.541Z,22.17
2022-07-31T18:44:00.546Z,22.17
2022-07-31T18:46:29.411Z,22.07
2022-07-31T18:48:57.709Z,22.12
2022-07-31T18:51:25.965Z,22.07
2022-07-31T18:53:54.860Z,22.05
2022-07-31T18:56:24.612Z,21.99
2022-07-31T18:58:52.989Z,21.96
2022-07-31T19:01:21.039Z,21.90
2022-07-31T19:03:48.761Z,21.84
2022-07-31T19:06:16.822Z,21.88
2022-07-31T19:08:44.916Z,21.83
2022-07-31T19:11:12.885Z,21.78
2022-07-31T19:13:41.983Z,21.80
2022-07-31T19:16:09.667Z,21.83
2022-07-31T19:18:50.176Z,21.83
2022-07-31T19:21:41.530Z,21.77
2022-07-31T19:24:08.542Z,21.68
2022-07-31T19:26:40.912Z,21.68
2022-07-31T19:29:10.338Z,21.66
2022-07-31T19:31:38.474Z,21.65
2022-07-31T19:34:06.146Z,21.70
2022-07-31T19:36:33.884Z,21.73
2022-07-31T19:39:01.714Z,21.71
2022-07-31T19:41:29.316Z,21.75
2022-07-31T19:43:56.939Z,21.78
2022-07-31T19:46:25.877Z,21.80
2022-07-31T19:48:53.680Z,21.74
2022-07-31T19:51:21.480Z,21.74
2022-07-31T19:53:49.298Z,21.73
2022-07-31T19:56:20.754Z,21.71
2022-07-31T19:58:49.968Z,21.57
2022-07-31T20:01:20.253Z,21.55
2022-07-31T20:03:50.141Z,21.59
2022-07-31T20:06:17.890Z,21.49
2022-07-31T20:08:45.579Z,21.56
2022-07-31T20:11:13.328Z,21.57
2022-07-31T20:13:41.252Z,21.56
2022-07-31T20:16:09.419Z,21.48
2022-07-31T20:18:37.088Z,21.40
2022-07-31T20:21:08.348Z,21.43
2022-07-31T20:23:38.140Z,21.55
2022-07-31T20:26:06.589Z,21.60
2022-07-31T20:28:34.250Z,21.50
2022-07-31T20:31:02.273Z,21.44
2022-07-31T20:33:29.908Z,21.35
2022-07-31T20:35:57.563Z,21.33
2022-07-31T20:38:26.792Z,21.18
2022-07-31T20:40:56.108Z,20.93
2022-07-31T20:43:24.915Z,20.84
2022-07-31T20:45:53.468Z,20.77
2022-07-31T20:48:23.885Z,20.73
2022-07-31T20:50:52.177Z,20.74
2022-07-31T20:53:20.819Z,20.84
2022-07-31T20:55:50.342Z,20.92
2022-07-31T20:58:18.045Z,20.93
2022-07-31T21:00:47.132Z,21.01
2022-07-31T21:03:15.030Z,21.05
2022-07-31T21:05:42.650Z,21.10
2022-07-31T21:08:10.547Z,21.04
2022-07-31T21:10:39.049Z,21.09
2022-07-31T21:13:07.985Z,21.07
2022-07-31T21:15:44.084Z,21.05
2022-07-31T21:18:12.849Z,21.08
2022-07-31T21:20:50.313Z,21.12
2022-07-31T21:23:22.649Z,21.15
2022-07-31T21:25:51.113Z,21.17
2022-07-31T21:28:21.329Z,21.20
2022-07-31T21:30:49.527Z,21.18
2022-07-31T21:33:18.334Z,21.16
2022-07-31T21:35:46.770Z,21.17
2022-07-31T21:38:15.603Z,21.18
2022-07-31T21:40:44.366Z,21.18
2022-07-31T21:43:15.454Z,21.16
2022-07-31T21:45:55.704Z,21.13
2022-07-31T21:48:27.435Z,21.18
2022-07-31T21:50:55.985Z,21.20
2022-07-31T21:53:24.714Z,21.20
2022-07-31T21:55:52.766Z,21.17
2022-07-31T21:58:20.712Z,21.10
2022-07-31T22:00:49.706Z,21.04
2022-07-31T22:03:17.362Z,20.95
2022-07-31T22:06:02.614Z,20.96
2022-07-31T22:08:30.494Z,21.04
2022-07-31T22:10:59.828Z,21.08
2022-07-31T22:13:27.717Z,21.07
2022-07-31T22:16:00.148Z,21.07
2022-07-31T22:18:29.539Z,21.08
2022-07-31T22:21:00.111Z,21.04
2022-07-31T22:23:29.434Z,21.08
2022-07-31T22:25:57.623Z,21.09
2022-07-31T22:28:26.737Z,21.08
2022-07-31T22:30:57.051Z,21.09
2022-07-31T22:33:25.487Z,21.06
2022-07-31T22:35:58.636Z,21.07
2022-07-31T22:38:30.121Z,21.06
2022-07-31T22:40:58.720Z,21.05
2022-07-31T22:44:11.457Z,21.01
2022-07-31T22:46:16.127Z,20.98
2022-07-31T22:48:45.872Z,21.01
2022-07-31T22:51:14.829Z,21.01
2022-07-31T22:53:43.156Z,21.00
2022-07-31T22:56:10.950Z,21.03
2022-07-31T22:58:38.590Z,21.01
